sensor_id;sensor_type;location;lat;lon;timestamp;P1;durP1;ratioP1;P2;durP2;ratioP2
74196;SDS011;62555;52.678;4.900;2023-02-11T00:00:57;6.70;;;3.33;;
74196;SDS011;62555;52.678;4.900;2023-02-11T00:03:23;6.55;;;3.30;;
74196;SDS011;62555;52.678;4.900;2023-02-11T00:06:01;5.78;;;3.05;;
74196;SDS011;62555;52.678;4.900;2023-02-11T00:08:28;6.72;;;2.65;;
74196;SDS011;62555;52.678;4.900;2023-02-11T00:10:54;6.93;;;3.30;;
74196;SDS011;62555;52.678;4.900;2023-02-11T00:13:21;5.97;;;2.75;;
74196;SDS011;62555;52.678;4.900;2023-02-11T00:15:47;4.88;;;2.85;;
74196;SDS011;62555;52.678;4.900;2023-02-11T00:18:13;7.82;;;2.78;;
74196;SDS011;62555;52.678;4.900;2023-02-11T00:20:38;4.65;;;2.42;;
74196;SDS011;62555;52.678;4.900;2023-02-11T00:23:04;8.55;;;2.92;;
74196;SDS011;62555;52.678;4.900;2023-02-11T00:25:29;5.00;;;2.47;;
74196;SDS011;62555;52.678;4.900;2023-02-11T00:27:55;6.30;;;2.60;;
74196;SDS011;62555;52.678;4.900;2023-02-11T00:30:21;4.40;;;2.45;;
74196;SDS011;62555;52.678;4.900;2023-02-11T00:32:46;4.60;;;2.50;;
74196;SDS011;62555;52.678;4.900;2023-02-11T00:35:11;7.50;;;3.80;;
74196;SDS011;62555;52.678;4.900;2023-02-11T00:37:37;5.68;;;2.47;;
74196;SDS011;62555;52.678;4.900;2023-02-11T00:40:03;4.70;;;2.35;;
74196;SDS011;62555;52.678;4.900;2023-02-11T00:42:29;6.63;;;2.80;;
74196;SDS011;62555;52.678;4.900;2023-02-11T00:44:54;3.85;;;2.38;;
74196;SDS011;62555;52.678;4.900;2023-02-11T00:47:19;6.35;;;3.30;;
74196;SDS011;62555;52.678;4.900;2023-02-11T00:49:45;5.55;;;3.15;;
74196;SDS011;62555;52.678;4.900;2023-02-11T00:52:10;7.22;;;2.53;;
74196;SDS011;62555;52.678;4.900;2023-02-11T00:54:35;5.03;;;2.22;;
74196;SDS011;62555;52.678;4.900;2023-02-11T00:57:01;5.65;;;2.65;;
74196;SDS011;62555;52.678;4.900;2023-02-11T00:59:26;3.60;;;2.58;;
74196;SDS011;62555;52.678;4.900;2023-02-11T01:01:52;5.30;;;3.47;;
74196;SDS011;62555;52.678;4.900;2023-02-11T01:04:17;7.22;;;2.63;;
74196;SDS011;62555;52.678;4.900;2023-02-11T01:06:42;4.70;;;3.08;;
74196;SDS011;62555;52.678;4.900;2023-02-11T01:09:08;6.75;;;2.97;;
74196;SDS011;62555;52.678;4.900;2023-02-11T01:11:33;5.90;;;2.83;;
74196;SDS011;62555;52.678;4.900;2023-02-11T01:13:58;6.68;;;3.33;;
74196;SDS011;62555;52.678;4.900;2023-02-11T01:16:24;7.00;;;2.95;;
74196;SDS011;62555;52.678;4.900;2023-02-11T01:18:49;5.20;;;2.85;;
74196;SDS011;62555;52.678;4.900;2023-02-11T01:21:14;6.53;;;3.45;;
74196;SDS011;62555;52.678;4.900;2023-02-11T01:23:40;5.88;;;2.92;;
74196;SDS011;62555;52.678;4.900;2023-02-11T01:26:05;5.88;;;2.90;;
74196;SDS011;62555;52.678;4.900;2023-02-11T01:28:31;6.63;;;3.15;;
74196;SDS011;62555;52.678;4.900;2023-02-11T01:30:57;6.03;;;3.22;;
74196;SDS011;62555;52.678;4.900;2023-02-11T01:33:24;5.13;;;2.80;;
74196;SDS011;62555;52.678;4.900;2023-02-11T01:35:49;6.90;;;2.95;;
74196;SDS011;62555;52.678;4.900;2023-02-11T01:38:16;5.97;;;3.10;;
74196;SDS011;62555;52.678;4.900;2023-02-11T01:40:47;6.18;;;3.40;;
74196;SDS011;62555;52.678;4.900;2023-02-11T01:43:14;5.43;;;3.05;;
74196;SDS011;62555;52.678;4.900;2023-02-11T01:48:14;4.47;;;3.15;;
74196;SDS011;62555;52.678;4.900;2023-02-11T01:50:43;4.47;;;2.50;;
74196;SDS011;62555;52.678;4.900;2023-02-11T01:53:10;6.43;;;2.80;;
74196;SDS011;62555;52.678;4.900;2023-02-11T01:55:55;7.35;;;3.00;;
74196;SDS011;62555;52.678;4.900;2023-02-11T01:58:40;4.57;;;2.90;;
74196;SDS011;62555;52.678;4.900;2023-02-11T02:01:07;5.88;;;3.40;;
74196;SDS011;62555;52.678;4.900;2023-02-11T02:03:35;5.00;;;3.05;;
74196;SDS011;62555;52.678;4.900;2023-02-11T02:06:09;4.70;;;2.88;;
74196;SDS011;62555;52.678;4.900;2023-02-11T02:08:51;7.20;;;3.60;;
74196;SDS011;62555;52.678;4.900;2023-02-11T02:11:19;8.55;;;3.70;;
74196;SDS011;62555;52.678;4.900;2023-02-11T02:13:44;7.25;;;3.20;;
74196;SDS011;62555;52.678;4.900;2023-02-11T02:16:14;8.25;;;3.20;;
74196;SDS011;62555;52.678;4.900;2023-02-11T02:24:30;6.60;;;3.33;;
74196;SDS011;62555;52.678;4.900;2023-02-11T02:38:12;4.78;;;3.05;;
74196;SDS011;62555;52.678;4.900;2023-02-11T02:40:44;5.53;;;3.30;;
74196;SDS011;62555;52.678;4.900;2023-02-11T02:43:12;6.53;;;3.22;;
74196;SDS011;62555;52.678;4.900;2023-02-11T02:45:38;8.68;;;3.22;;
74196;SDS011;62555;52.678;4.900;2023-02-11T02:48:03;8.45;;;3.65;;
74196;SDS011;62555;52.678;4.900;2023-02-11T02:50:32;5.70;;;3.00;;
74196;SDS011;62555;52.678;4.900;2023-02-11T02:53:07;6.53;;;4.00;;
74196;SDS011;62555;52.678;4.900;2023-02-11T02:58:30;5.72;;;3.05;;
74196;SDS011;62555;52.678;4.900;2023-02-11T03:01:26;5.55;;;3.03;;
74196;SDS011;62555;52.678;4.900;2023-02-11T03:07:44;7.13;;;3.22;;
74196;SDS011;62555;52.678;4.900;2023-02-11T03:12:52;8.45;;;3.40;;
74196;SDS011;62555;52.678;4.900;2023-02-11T03:15:18;5.15;;;3.20;;
74196;SDS011;62555;52.678;4.900;2023-02-11T03:17:46;5.65;;;3.67;;
74196;SDS011;62555;52.678;4.900;2023-02-11T03:22:40;7.22;;;2.95;;
74196;SDS011;62555;52.678;4.900;2023-02-11T03:25:09;7.28;;;3.30;;
74196;SDS011;62555;52.678;4.900;2023-02-11T03:27:40;5.00;;;3.60;;
74196;SDS011;62555;52.678;4.900;2023-02-11T03:30:15;6.78;;;3.42;;
74196;SDS011;62555;52.678;4.900;2023-02-11T03:32:48;6.80;;;3.40;;
74196;SDS011;62555;52.678;4.900;2023-02-11T03:38:13;5.60;;;3.00;;
74196;SDS011;62555;52.678;4.900;2023-02-11T03:40:44;6.38;;;3.42;;
74196;SDS011;62555;52.678;4.900;2023-02-11T03:45:41;4.80;;;2.60;;
74196;SDS011;62555;52.678;4.900;2023-02-11T03:48:26;5.32;;;2.92;;
74196;SDS011;62555;52.678;4.900;2023-02-11T03:50:55;5.57;;;2.75;;
74196;SDS011;62555;52.678;4.900;2023-02-11T03:53:22;7.13;;;3.20;;
74196;SDS011;62555;52.678;4.900;2023-02-11T03:55:48;5.60;;;3.05;;
74196;SDS011;62555;52.678;4.900;2023-02-11T03:58:14;5.43;;;3.20;;
74196;SDS011;62555;52.678;4.900;2023-02-11T04:00:40;6.18;;;3.58;;
74196;SDS011;62555;52.678;4.900;2023-02-11T04:03:06;5.07;;;3.10;;
74196;SDS011;62555;52.678;4.900;2023-02-11T04:05:32;4.60;;;2.90;;
74196;SDS011;62555;52.678;4.900;2023-02-11T04:07:58;5.18;;;2.97;;
74196;SDS011;62555;52.678;4.900;2023-02-11T04:10:23;5.47;;;3.22;;
74196;SDS011;62555;52.678;4.900;2023-02-11T04:12:49;4.53;;;3.03;;
74196;SDS011;62555;52.678;4.900;2023-02-11T04:15:14;5.88;;;3.28;;
74196;SDS011;62555;52.678;4.900;2023-02-11T04:17:39;5.18;;;2.95;;
74196;SDS011;62555;52.678;4.900;2023-02-11T04:20:05;5.47;;;2.80;;
74196;SDS011;62555;52.678;4.900;2023-02-11T04:22:31;5.18;;;2.85;;
74196;SDS011;62555;52.678;4.900;2023-02-11T04:24:56;4.65;;;3.42;;
74196;SDS011;62555;52.678;4.900;2023-02-11T04:27:22;6.63;;;3.78;;
74196;SDS011;62555;52.678;4.900;2023-02-11T04:29:47;5.38;;;2.90;;
74196;SDS011;62555;52.678;4.900;2023-02-11T04:32:12;5.40;;;3.95;;
74196;SDS011;62555;52.678;4.900;2023-02-11T04:34:38;4.35;;;2.65;;
74196;SDS011;62555;52.678;4.900;2023-02-11T04:37:03;4.18;;;2.42;;
74196;SDS011;62555;52.678;4.900;2023-02-11T04:39:29;5.15;;;3.22;;
74196;SDS011;62555;52.678;4.900;2023-02-11T04:41:54;5.75;;;3.25;;
74196;SDS011;62555;52.678;4.900;2023-02-11T04:44:19;4.82;;;2.75;;
74196;SDS011;62555;52.678;4.900;2023-02-11T04:46:45;5.35;;;2.92;;
74196;SDS011;62555;52.678;4.900;2023-02-11T04:49:13;3.97;;;2.88;;
74196;SDS011;62555;52.678;4.900;2023-02-11T04:51:40;5.50;;;3.38;;
74196;SDS011;62555;52.678;4.900;2023-02-11T04:54:05;5.50;;;2.95;;
74196;SDS011;62555;52.678;4.900;2023-02-11T04:56:31;4.22;;;2.95;;
74196;SDS011;62555;52.678;4.900;2023-02-11T04:58:56;5.25;;;2.80;;
74196;SDS011;62555;52.678;4.900;2023-02-11T05:01:22;4.78;;;3.25;;
74196;SDS011;62555;52.678;4.900;2023-02-11T05:03:47;5.55;;;2.67;;
74196;SDS011;62555;52.678;4.900;2023-02-11T05:06:13;5.95;;;3.17;;
74196;SDS011;62555;52.678;4.900;2023-02-11T05:08:38;5.15;;;3.10;;
74196;SDS011;62555;52.678;4.900;2023-02-11T05:11:04;5.00;;;2.75;;
74196;SDS011;62555;52.678;4.900;2023-02-11T05:13:30;5.78;;;3.10;;
74196;SDS011;62555;52.678;4.900;2023-02-11T05:15:55;5.20;;;2.80;;
74196;SDS011;62555;52.678;4.900;2023-02-11T05:18:21;6.85;;;2.72;;
74196;SDS011;62555;52.678;4.900;2023-02-11T05:20:47;7.03;;;3.60;;
74196;SDS011;62555;52.678;4.900;2023-02-11T05:23:12;5.15;;;2.65;;
74196;SDS011;62555;52.678;4.900;2023-02-11T05:25:37;5.47;;;2.60;;
74196;SDS011;62555;52.678;4.900;2023-02-11T05:28:03;6.07;;;3.25;;
74196;SDS011;62555;52.678;4.900;2023-02-11T05:30:29;4.53;;;2.80;;
74196;SDS011;62555;52.678;4.900;2023-02-11T05:32:54;6.95;;;3.03;;
74196;SDS011;62555;52.678;4.900;2023-02-11T05:35:20;4.32;;;2.53;;
74196;SDS011;62555;52.678;4.900;2023-02-11T05:37:45;5.57;;;2.78;;
74196;SDS011;62555;52.678;4.900;2023-02-11T05:40:10;4.68;;;2.97;;
74196;SDS011;62555;52.678;4.900;2023-02-11T05:42:36;5.85;;;2.80;;
74196;SDS011;62555;52.678;4.900;2023-02-11T05:45:01;4.65;;;2.95;;
74196;SDS011;62555;52.678;4.900;2023-02-11T05:47:27;5.45;;;3.03;;
74196;SDS011;62555;52.678;4.900;2023-02-11T05:49:52;5.75;;;2.85;;
74196;SDS011;62555;52.678;4.900;2023-02-11T05:52:18;6.13;;;2.75;;
74196;SDS011;62555;52.678;4.900;2023-02-11T05:54:44;5.13;;;3.00;;
74196;SDS011;62555;52.678;4.900;2023-02-11T05:57:09;5.55;;;2.67;;
74196;SDS011;62555;52.678;4.900;2023-02-11T05:59:35;6.72;;;2.90;;
74196;SDS011;62555;52.678;4.900;2023-02-11T06:02:00;4.40;;;3.08;;
74196;SDS011;62555;52.678;4.900;2023-02-11T06:04:26;6.07;;;2.67;;
74196;SDS011;62555;52.678;4.900;2023-02-11T06:06:51;5.90;;;2.67;;
74196;SDS011;62555;52.678;4.900;2023-02-11T06:09:16;4.93;;;2.67;;
74196;SDS011;62555;52.678;4.900;2023-02-11T06:11:42;5.82;;;2.78;;
74196;SDS011;62555;52.678;4.900;2023-02-11T06:14:07;4.75;;;3.00;;
74196;SDS011;62555;52.678;4.900;2023-02-11T06:16:33;5.78;;;3.65;;
74196;SDS011;62555;52.678;4.900;2023-02-11T06:18:59;5.40;;;2.88;;
74196;SDS011;62555;52.678;4.900;2023-02-11T06:21:24;4.85;;;3.05;;
74196;SDS011;62555;52.678;4.900;2023-02-11T06:23:49;4.65;;;2.95;;
74196;SDS011;62555;52.678;4.900;2023-02-11T06:26:16;9.52;;;3.55;;
74196;SDS011;62555;52.678;4.900;2023-02-11T06:28:43;4.55;;;2.78;;
74196;SDS011;62555;52.678;4.900;2023-02-11T06:31:09;5.75;;;3.42;;
74196;SDS011;62555;52.678;4.900;2023-02-11T06:33:35;4.63;;;3.22;;
74196;SDS011;62555;52.678;4.900;2023-02-11T06:36:02;4.90;;;2.60;;
74196;SDS011;62555;52.678;4.900;2023-02-11T06:38:28;6.20;;;3.60;;
74196;SDS011;62555;52.678;4.900;2023-02-11T06:40:53;4.05;;;2.80;;
74196;SDS011;62555;52.678;4.900;2023-02-11T06:43:18;5.82;;;3.40;;
74196;SDS011;62555;52.678;4.900;2023-02-11T06:45:44;3.88;;;2.78;;
74196;SDS011;62555;52.678;4.900;2023-02-11T06:48:09;4.57;;;2.88;;
74196;SDS011;62555;52.678;4.900;2023-02-11T06:50:34;6.32;;;3.72;;
74196;SDS011;62555;52.678;4.900;2023-02-11T06:53:00;5.70;;;3.25;;
74196;SDS011;62555;52.678;4.900;2023-02-11T06:55:26;3.38;;;2.80;;
74196;SDS011;62555;52.678;4.900;2023-02-11T06:57:51;5.35;;;3.47;;
74196;SDS011;62555;52.678;4.900;2023-02-11T07:00:17;5.13;;;3.03;;
74196;SDS011;62555;52.678;4.900;2023-02-11T07:02:42;3.58;;;2.80;;
74196;SDS011;62555;52.678;4.900;2023-02-11T07:05:08;5.75;;;3.08;;
74196;SDS011;62555;52.678;4.900;2023-02-11T07:07:34;4.25;;;3.00;;
74196;SDS011;62555;52.678;4.900;2023-02-11T07:09:59;5.65;;;3.05;;
74196;SDS011;62555;52.678;4.900;2023-02-11T07:12:26;4.85;;;2.92;;
74196;SDS011;62555;52.678;4.900;2023-02-11T07:14:52;7.18;;;3.35;;
74196;SDS011;62555;52.678;4.900;2023-02-11T07:17:17;6.22;;;3.20;;
74196;SDS011;62555;52.678;4.900;2023-02-11T07:19:42;6.28;;;3.50;;
74196;SDS011;62555;52.678;4.900;2023-02-11T07:22:08;4.47;;;2.92;;
74196;SDS011;62555;52.678;4.900;2023-02-11T07:24:33;7.10;;;3.42;;
74196;SDS011;62555;52.678;4.900;2023-02-11T07:26:58;5.57;;;2.75;;
74196;SDS011;62555;52.678;4.900;2023-02-11T07:29:24;4.28;;;2.83;;
74196;SDS011;62555;52.678;4.900;2023-02-11T07:31:49;4.97;;;3.03;;
74196;SDS011;62555;52.678;4.900;2023-02-11T07:34:14;6.85;;;3.22;;
74196;SDS011;62555;52.678;4.900;2023-02-11T07:36:40;3.83;;;2.78;;
74196;SDS011;62555;52.678;4.900;2023-02-11T07:39:07;4.57;;;2.72;;
74196;SDS011;62555;52.678;4.900;2023-02-11T07:41:33;5.20;;;3.22;;
74196;SDS011;62555;52.678;4.900;2023-02-11T07:44:00;5.60;;;3.05;;
74196;SDS011;62555;52.678;4.900;2023-02-11T07:46:27;6.57;;;3.60;;
74196;SDS011;62555;52.678;4.900;2023-02-11T07:48:52;5.55;;;3.25;;
74196;SDS011;62555;52.678;4.900;2023-02-11T07:51:22;6.93;;;3.22;;
74196;SDS011;62555;52.678;4.900;2023-02-11T07:53:48;7.35;;;3.30;;
74196;SDS011;62555;52.678;4.900;2023-02-11T07:56:15;5.32;;;2.85;;
74196;SDS011;62555;52.678;4.900;2023-02-11T07:58:41;4.50;;;2.83;;
74196;SDS011;62555;52.678;4.900;2023-02-11T08:01:08;4.63;;;2.58;;
74196;SDS011;62555;52.678;4.900;2023-02-11T08:03:35;5.22;;;2.83;;
74196;SDS011;62555;52.678;4.900;2023-02-11T08:06:05;3.92;;;2.70;;
74196;SDS011;62555;52.678;4.900;2023-02-11T08:08:31;4.47;;;2.75;;
74196;SDS011;62555;52.678;4.900;2023-02-11T08:10:57;5.07;;;2.58;;
74196;SDS011;62555;52.678;4.900;2023-02-11T08:13:22;6.13;;;3.38;;
74196;SDS011;62555;52.678;4.900;2023-02-11T08:15:48;4.28;;;2.90;;
74196;SDS011;62555;52.678;4.900;2023-02-11T08:18:13;5.57;;;2.80;;
74196;SDS011;62555;52.678;4.900;2023-02-11T08:20:38;4.88;;;3.28;;
74196;SDS011;62555;52.678;4.900;2023-02-11T08:23:05;3.33;;;2.13;;
74196;SDS011;62555;52.678;4.900;2023-02-11T08:25:31;4.70;;;2.63;;
74196;SDS011;62555;52.678;4.900;2023-02-11T08:27:57;4.47;;;2.58;;
74196;SDS011;62555;52.678;4.900;2023-02-11T08:30:22;4.40;;;2.35;;
74196;SDS011;62555;52.678;4.900;2023-02-11T08:32:48;3.58;;;2.55;;
74196;SDS011;62555;52.678;4.900;2023-02-11T08:35:13;4.43;;;2.35;;
74196;SDS011;62555;52.678;4.900;2023-02-11T08:37:38;4.78;;;2.75;;
74196;SDS011;62555;52.678;4.900;2023-02-11T08:40:04;5.18;;;2.50;;
74196;SDS011;62555;52.678;4.900;2023-02-11T08:42:29;4.07;;;2.55;;
74196;SDS011;62555;52.678;4.900;2023-02-11T08:44:55;5.47;;;2.92;;
74196;SDS011;62555;52.678;4.900;2023-02-11T08:47:20;3.38;;;2.58;;
74196;SDS011;62555;52.678;4.900;2023-02-11T08:49:45;4.25;;;2.40;;
74196;SDS011;62555;52.678;4.900;2023-02-11T08:52:11;5.20;;;2.80;;
74196;SDS011;62555;52.678;4.900;2023-02-11T08:54:36;3.47;;;2.30;;
74196;SDS011;62555;52.678;4.900;2023-02-11T08:57:02;5.05;;;2.20;;
74196;SDS011;62555;52.678;4.900;2023-02-11T08:59:28;4.88;;;2.85;;
74196;SDS011;62555;52.678;4.900;2023-02-11T09:01:53;3.15;;;1.73;;
74196;SDS011;62555;52.678;4.900;2023-02-11T09:04:18;3.83;;;2.17;;
74196;SDS011;62555;52.678;4.900;2023-02-11T09:06:44;3.38;;;2.45;;
74196;SDS011;62555;52.678;4.900;2023-02-11T09:09:10;3.35;;;1.85;;
74196;SDS011;62555;52.678;4.900;2023-02-11T09:11:37;3.97;;;2.13;;
74196;SDS011;62555;52.678;4.900;2023-02-11T09:14:04;3.28;;;2.13;;
74196;SDS011;62555;52.678;4.900;2023-02-11T09:16:31;4.68;;;2.35;;
74196;SDS011;62555;52.678;4.900;2023-02-11T09:18:57;2.75;;;1.95;;
74196;SDS011;62555;52.678;4.900;2023-02-11T09:21:24;3.53;;;2.22;;
74196;SDS011;62555;52.678;4.900;2023-02-11T09:23:49;4.47;;;1.98;;
74196;SDS011;62555;52.678;4.900;2023-02-11T09:26:16;4.32;;;2.50;;
74196;SDS011;62555;52.678;4.900;2023-02-11T09:28:46;3.80;;;1.73;;
74196;SDS011;62555;52.678;4.900;2023-02-11T09:31:13;2.92;;;1.88;;
74196;SDS011;62555;52.678;4.900;2023-02-11T09:33:40;2.85;;;1.73;;
74196;SDS011;62555;52.678;4.900;2023-02-11T09:36:11;5.22;;;2.15;;
74196;SDS011;62555;52.678;4.900;2023-02-11T09:38:38;2.47;;;2.03;;
74196;SDS011;62555;52.678;4.900;2023-02-11T09:41:03;3.88;;;2.20;;
74196;SDS011;62555;52.678;4.900;2023-02-11T09:43:42;3.67;;;1.77;;
74196;SDS011;62555;52.678;4.900;2023-02-11T09:46:10;2.50;;;1.60;;
74196;SDS011;62555;52.678;4.900;2023-02-11T09:48:39;3.25;;;1.85;;
74196;SDS011;62555;52.678;4.900;2023-02-11T09:51:05;3.58;;;2.10;;
74196;SDS011;62555;52.678;4.900;2023-02-11T09:53:40;2.63;;;1.67;;
74196;SDS011;62555;52.678;4.900;2023-02-11T09:56:10;3.53;;;1.75;;
74196;SDS011;62555;52.678;4.900;2023-02-11T09:58:39;2.67;;;1.65;;
74196;SDS011;62555;52.678;4.900;2023-02-11T10:15:00;1.92;;;1.20;;
74196;SDS011;62555;52.678;4.900;2023-02-11T10:18:00;2.25;;;1.35;;
74196;SDS011;62555;52.678;4.900;2023-02-11T10:23:20;1.38;;;1.00;;
74196;SDS011;62555;52.678;4.900;2023-02-11T10:25:49;2.13;;;1.02;;
74196;SDS011;62555;52.678;4.900;2023-02-11T10:28:22;1.85;;;1.10;;
74196;SDS011;62555;52.678;4.900;2023-02-11T10:30:56;2.63;;;1.40;;
74196;SDS011;62555;52.678;4.900;2023-02-11T10:33:29;1.90;;;1.27;;
74196;SDS011;62555;52.678;4.900;2023-02-11T10:35:56;1.50;;;0.82;;
74196;SDS011;62555;52.678;4.900;2023-02-11T10:38:22;2.13;;;1.25;;
74196;SDS011;62555;52.678;4.900;2023-02-11T10:40:47;1.45;;;0.93;;
74196;SDS011;62555;52.678;4.900;2023-02-11T10:43:14;2.72;;;1.30;;
74196;SDS011;62555;52.678;4.900;2023-02-11T10:45:44;1.83;;;1.30;;
74196;SDS011;62555;52.678;4.900;2023-02-11T10:53:37;1.77;;;1.17;;
74196;SDS011;62555;52.678;4.900;2023-02-11T10:56:03;2.35;;;1.10;;
74196;SDS011;62555;52.678;4.900;2023-02-11T10:58:43;1.20;;;0.90;;
74196;SDS011;62555;52.678;4.900;2023-02-11T11:01:10;1.50;;;0.80;;
74196;SDS011;62555;52.678;4.900;2023-02-11T11:03:39;1.88;;;1.17;;
74196;SDS011;62555;52.678;4.900;2023-02-11T11:06:10;2.00;;;0.85;;
74196;SDS011;62555;52.678;4.900;2023-02-11T11:11:10;2.38;;;1.17;;
74196;SDS011;62555;52.678;4.900;2023-02-11T11:13:40;1.70;;;1.00;;
74196;SDS011;62555;52.678;4.900;2023-02-11T11:18:46;2.55;;;1.17;;
74196;SDS011;62555;52.678;4.900;2023-02-11T11:21:22;2.42;;;1.65;;
74196;SDS011;62555;52.678;4.900;2023-02-11T11:23:51;1.80;;;1.20;;
74196;SDS011;62555;52.678;4.900;2023-02-11T11:26:19;2.03;;;1.40;;
74196;SDS011;62555;52.678;4.900;2023-02-11T11:31:13;2.17;;;1.35;;
74196;SDS011;62555;52.678;4.900;2023-02-11T11:33:42;3.20;;;1.40;;
74196;SDS011;62555;52.678;4.900;2023-02-11T11:36:10;2.58;;;1.42;;
74196;SDS011;62555;52.678;4.900;2023-02-11T11:38:56;2.28;;;1.50;;
74196;SDS011;62555;52.678;4.900;2023-02-11T11:41:27;1.67;;;1.40;;
74196;SDS011;62555;52.678;4.900;2023-02-11T11:46:24;3.33;;;1.63;;
74196;SDS011;62555;52.678;4.900;2023-02-11T11:48:51;1.98;;;1.13;;
74196;SDS011;62555;52.678;4.900;2023-02-11T11:51:40;2.25;;;1.20;;
74196;SDS011;62555;52.678;4.900;2023-02-11T11:54:10;3.25;;;1.40;;
74196;SDS011;62555;52.678;4.900;2023-02-11T11:56:39;2.55;;;1.50;;
74196;SDS011;62555;52.678;4.900;2023-02-11T11:59:15;3.75;;;1.38;;
74196;SDS011;62555;52.678;4.900;2023-02-11T12:10:00;3.88;;;1.55;;
74196;SDS011;62555;52.678;4.900;2023-02-11T12:18:06;3.50;;;1.38;;
74196;SDS011;62555;52.678;4.900;2023-02-11T12:53:45;6.85;;;2.28;;
74196;SDS011;62555;52.678;4.900;2023-02-11T12:57:10;6.05;;;1.95;;
74196;SDS011;62555;52.678;4.900;2023-02-11T12:59:16;2.30;;;1.67;;
74196;SDS011;62555;52.678;4.900;2023-02-11T13:01:55;3.88;;;1.98;;
74196;SDS011;62555;52.678;4.900;2023-02-11T13:04:29;2.78;;;2.03;;
74196;SDS011;62555;52.678;4.900;2023-02-11T13:07:01;4.68;;;1.90;;
74196;SDS011;62555;52.678;4.900;2023-02-11T13:09:31;3.33;;;1.98;;
74196;SDS011;62555;52.678;4.900;2023-02-11T13:12:01;5.13;;;2.38;;
74196;SDS011;62555;52.678;4.900;2023-02-11T13:14:47;3.78;;;2.10;;
74196;SDS011;62555;52.678;4.900;2023-02-11T13:17:27;4.57;;;2.25;;
74196;SDS011;62555;52.678;4.900;2023-02-11T13:20:01;4.10;;;2.20;;
74196;SDS011;62555;52.678;4.900;2023-02-11T13:22:37;4.45;;;2.30;;
74196;SDS011;62555;52.678;4.900;2023-02-11T13:25:06;5.70;;;2.50;;
74196;SDS011;62555;52.678;4.900;2023-02-11T13:27:47;4.53;;;2.55;;
74196;SDS011;62555;52.678;4.900;2023-02-11T13:33:20;4.72;;;2.05;;
74196;SDS011;62555;52.678;4.900;2023-02-11T13:38:23;4.53;;;2.20;;
74196;SDS011;62555;52.678;4.900;2023-02-11T13:43:28;3.03;;;2.17;;
74196;SDS011;62555;52.678;4.900;2023-02-11T13:48:28;6.65;;;2.28;;
74196;SDS011;62555;52.678;4.900;2023-02-11T13:51:15;2.72;;;2.00;;
74196;SDS011;62555;52.678;4.900;2023-02-11T13:53:43;4.15;;;2.17;;
74196;SDS011;62555;52.678;4.900;2023-02-11T13:56:22;3.63;;;2.28;;
74196;SDS011;62555;52.678;4.900;2023-02-11T13:58:55;3.75;;;2.10;;
74196;SDS011;62555;52.678;4.900;2023-02-11T14:04:31;3.10;;;2.25;;
74196;SDS011;62555;52.678;4.900;2023-02-11T14:07:26;3.00;;;2.00;;
74196;SDS011;62555;52.678;4.900;2023-02-11T14:13:18;3.60;;;1.65;;
74196;SDS011;62555;52.678;4.900;2023-02-11T14:23:52;12.95;;;2.53;;
74196;SDS011;62555;52.678;4.900;2023-02-11T14:28:49;4.47;;;1.83;;
74196;SDS011;62555;52.678;4.900;2023-02-11T14:31:25;2.90;;;1.40;;
74196;SDS011;62555;52.678;4.900;2023-02-11T14:36:43;1.88;;;1.60;;
74196;SDS011;62555;52.678;4.900;2023-02-11T14:41:39;2.20;;;1.70;;
74196;SDS011;62555;52.678;4.900;2023-02-11T14:44:10;3.15;;;1.83;;
74196;SDS011;62555;52.678;4.900;2023-02-11T14:46:42;3.15;;;1.58;;
74196;SDS011;62555;52.678;4.900;2023-02-11T14:49:17;2.67;;;2.00;;
74196;SDS011;62555;52.678;4.900;2023-02-11T14:51:49;3.13;;;1.67;;
74196;SDS011;62555;52.678;4.900;2023-02-11T14:54:16;4.65;;;1.92;;
74196;SDS011;62555;52.678;4.900;2023-02-11T14:56:45;2.45;;;1.70;;
74196;SDS011;62555;52.678;4.900;2023-02-11T14:59:20;3.17;;;1.90;;
74196;SDS011;62555;52.678;4.900;2023-02-11T15:01:50;3.05;;;1.70;;
74196;SDS011;62555;52.678;4.900;2023-02-11T15:04:31;3.88;;;1.65;;
74196;SDS011;62555;52.678;4.900;2023-02-11T15:06:57;3.25;;;1.88;;
74196;SDS011;62555;52.678;4.900;2023-02-11T15:09:40;3.60;;;1.92;;
74196;SDS011;62555;52.678;4.900;2023-02-11T15:12:18;2.15;;;1.85;;
74196;SDS011;62555;52.678;4.900;2023-02-11T15:14:47;2.88;;;2.03;;
74196;SDS011;62555;52.678;4.900;2023-02-11T15:17:21;3.67;;;1.85;;
74196;SDS011;62555;52.678;4.900;2023-02-11T15:19:50;3.30;;;2.10;;
74196;SDS011;62555;52.678;4.900;2023-02-11T15:22:19;2.20;;;1.70;;
74196;SDS011;62555;52.678;4.900;2023-02-11T15:24:59;3.65;;;2.10;;
74196;SDS011;62555;52.678;4.900;2023-02-11T15:27:36;4.60;;;2.13;;
74196;SDS011;62555;52.678;4.900;2023-02-11T15:30:07;3.50;;;2.10;;
74196;SDS011;62555;52.678;4.900;2023-02-11T15:32:51;2.17;;;1.90;;
74196;SDS011;62555;52.678;4.900;2023-02-11T15:35:22;2.47;;;2.28;;
74196;SDS011;62555;52.678;4.900;2023-02-11T15:37:49;2.80;;;2.25;;
74196;SDS011;62555;52.678;4.900;2023-02-11T15:40:15;2.80;;;2.35;;
74196;SDS011;62555;52.678;4.900;2023-02-11T15:45:24;3.05;;;2.40;;
74196;SDS011;62555;52.678;4.900;2023-02-11T15:50:53;2.70;;;2.50;;
74196;SDS011;62555;52.678;4.900;2023-02-11T15:53:24;3.92;;;2.33;;
74196;SDS011;62555;52.678;4.900;2023-02-11T15:56:09;4.15;;;2.20;;
74196;SDS011;62555;52.678;4.900;2023-02-11T15:58:36;3.83;;;2.53;;
74196;SDS011;62555;52.678;4.900;2023-02-11T16:01:02;3.15;;;2.85;;
74196;SDS011;62555;52.678;4.900;2023-02-11T16:03:28;5.10;;;3.38;;
74196;SDS011;62555;52.678;4.900;2023-02-11T16:05:56;5.60;;;3.50;;
74196;SDS011;62555;52.678;4.900;2023-02-11T16:08:39;4.35;;;3.95;;
74196;SDS011;62555;52.678;4.900;2023-02-11T16:13:43;8.55;;;5.38;;
74196;SDS011;62555;52.678;4.900;2023-02-11T16:16:43;6.93;;;5.00;;
74196;SDS011;62555;52.678;4.900;2023-02-11T16:19:11;7.22;;;5.43;;
74196;SDS011;62555;52.678;4.900;2023-02-11T16:21:40;8.45;;;6.15;;
74196;SDS011;62555;52.678;4.900;2023-02-11T16:24:19;6.50;;;5.85;;
74196;SDS011;62555;52.678;4.900;2023-02-11T16:26:46;9.25;;;5.72;;
74196;SDS011;62555;52.678;4.900;2023-02-11T16:29:14;9.10;;;6.10;;
74196;SDS011;62555;52.678;4.900;2023-02-11T16:31:42;7.78;;;5.90;;
74196;SDS011;62555;52.678;4.900;2023-02-11T16:34:12;7.97;;;5.88;;
74196;SDS011;62555;52.678;4.900;2023-02-11T16:36:39;9.25;;;5.72;;
74196;SDS011;62555;52.678;4.900;2023-02-11T16:39:05;7.40;;;6.28;;
74196;SDS011;62555;52.678;4.900;2023-02-11T16:41:30;8.63;;;5.70;;
74196;SDS011;62555;52.678;4.900;2023-02-11T16:43:55;8.73;;;5.95;;
74196;SDS011;62555;52.678;4.900;2023-02-11T16:46:21;8.13;;;5.93;;
74196;SDS011;62555;52.678;4.900;2023-02-11T16:48:47;7.43;;;4.82;;
74196;SDS011;62555;52.678;4.900;2023-02-11T16:51:12;7.45;;;5.10;;
74196;SDS011;62555;52.678;4.900;2023-02-11T16:53:37;7.05;;;5.13;;
74196;SDS011;62555;52.678;4.900;2023-02-11T16:56:03;5.60;;;4.07;;
74196;SDS011;62555;52.678;4.900;2023-02-11T16:58:28;5.65;;;3.72;;
74196;SDS011;62555;52.678;4.900;2023-02-11T17:00:54;5.00;;;3.72;;
74196;SDS011;62555;52.678;4.900;2023-02-11T17:03:22;5.68;;;3.20;;
74196;SDS011;62555;52.678;4.900;2023-02-11T17:05:49;3.85;;;2.83;;
74196;SDS011;62555;52.678;4.900;2023-02-11T17:08:15;4.80;;;3.03;;
74196;SDS011;62555;52.678;4.900;2023-02-11T17:10:40;4.90;;;2.65;;
74196;SDS011;62555;52.678;4.900;2023-02-11T17:13:06;5.75;;;2.70;;
74196;SDS011;62555;52.678;4.900;2023-02-11T17:15:31;5.65;;;2.67;;
74196;SDS011;62555;52.678;4.900;2023-02-11T17:17:57;3.75;;;2.70;;
74196;SDS011;62555;52.678;4.900;2023-02-11T17:20:22;5.90;;;3.17;;
74196;SDS011;62555;52.678;4.900;2023-02-11T17:22:48;5.15;;;2.63;;
74196;SDS011;62555;52.678;4.900;2023-02-11T17:25:14;3.90;;;2.63;;
74196;SDS011;62555;52.678;4.900;2023-02-11T17:27:39;3.13;;;2.35;;
74196;SDS011;62555;52.678;4.900;2023-02-11T17:30:05;5.35;;;2.72;;
74196;SDS011;62555;52.678;4.900;2023-02-11T17:32:31;5.53;;;3.10;;